sensor_id;sensor_type;location;lat;lon;timestamp;P1;durP1;ratioP1;P2;durP2;ratioP2
60239;SDS011;46102;39.012;-7.064;2022-09-03T00:01:28;4.22;;;3.90;;
60239;SDS011;46102;39.012;-7.064;2022-09-03T00:03:39;3.97;;;3.67;;
60239;SDS011;46102;39.012;-7.064;2022-09-03T00:05:46;6.55;;;4.10;;
60239;SDS011;46102;39.012;-7.064;2022-09-03T00:10:05;4.40;;;4.00;;
60239;SDS011;46102;39.012;-7.064;2022-09-03T00:12:16;5.97;;;4.20;;
60239;SDS011;46102;39.012;-7.064;2022-09-03T00:14:25;4.68;;;4.20;;
60239;SDS011;46102;39.012;-7.064;2022-09-03T00:16:39;4.10;;;3.58;;
60239;SDS011;46102;39.012;-7.064;2022-09-03T00:18:46;4.47;;;4.07;;
60239;SDS011;46102;39.012;-7.064;2022-09-03T00:21:00;6.45;;;3.97;;
60239;SDS011;46102;39.012;-7.064;2022-09-03T00:23:26;4.50;;;3.60;;
60239;SDS011;46102;39.012;-7.064;2022-09-03T00:27:44;3.05;;;2.67;;
60239;SDS011;46102;39.012;-7.064;2022-09-03T00:29:53;2.47;;;2.35;;
60239;SDS011;46102;39.012;-7.064;2022-09-03T00:32:01;2.88;;;2.60;;
60239;SDS011;46102;39.012;-7.064;2022-09-03T00:34:14;1.85;;;1.75;;
60239;SDS011;46102;39.012;-7.064;2022-09-03T00:36:23;2.45;;;1.63;;
60239;SDS011;46102;39.012;-7.064;2022-09-03T00:38:29;2.35;;;1.50;;
60239;SDS011;46102;39.012;-7.064;2022-09-03T00:40:37;1.45;;;1.25;;
60239;SDS011;46102;39.012;-7.064;2022-09-03T00:42:49;1.10;;;0.98;;
60239;SDS011;46102;39.012;-7.064;2022-09-03T00:45:10;1.77;;;1.00;;
60239;SDS011;46102;39.012;-7.064;2022-09-03T00:47:22;1.45;;;1.10;;
60239;SDS011;46102;39.012;-7.064;2022-09-03T00:49:36;1.13;;;1.02;;
60239;SDS011;46102;39.012;-7.064;2022-09-03T00:54:02;2.47;;;1.10;;
60239;SDS011;46102;39.012;-7.064;2022-09-03T00:56:16;2.25;;;1.00;;
60239;SDS011;46102;39.012;-7.064;2022-09-03T01:00:39;2.05;;;1.38;;
60239;SDS011;46102;39.012;-7.064;2022-09-03T01:18:18;1.95;;;1.20;;
60239;SDS011;46102;39.012;-7.064;2022-09-03T01:23:13;2.42;;;1.13;;
60239;SDS011;46102;39.012;-7.064;2022-09-03T01:30:21;5.55;;;1.35;;
60239;SDS011;46102;39.012;-7.064;2022-09-03T01:32:30;2.85;;;1.40;;
60239;SDS011;46102;39.012;-7.064;2022-09-03T01:39:00;1.17;;;1.00;;
60239;SDS011;46102;39.012;-7.064;2022-09-03T01:43:43;2.60;;;1.00;;
60239;SDS011;46102;39.012;-7.064;2022-09-03T01:45:54;1.27;;;1.00;;
60239;SDS011;46102;39.012;-7.064;2022-09-03T01:59:08;5.32;;;1.40;;
60239;SDS011;46102;39.012;-7.064;2022-09-03T02:01:20;1.70;;;1.38;;
60239;SDS011;46102;39.012;-7.064;2022-09-03T02:03:26;2.53;;;1.30;;
60239;SDS011;46102;39.012;-7.064;2022-09-03T02:05:37;1.17;;;0.98;;
60239;SDS011;46102;39.012;-7.064;2022-09-03T02:07:39;2.10;;;1.23;;
60239;SDS011;46102;39.012;-7.064;2022-09-03T02:09:45;2.65;;;1.27;;
60239;SDS011;46102;39.012;-7.064;2022-09-03T02:11:49;3.85;;;1.67;;
60239;SDS011;46102;39.012;-7.064;2022-09-03T02:13:58;4.97;;;1.60;;
60239;SDS011;46102;39.012;-7.064;2022-09-03T02:16:01;1.45;;;1.35;;
60239;SDS011;46102;39.012;-7.064;2022-09-03T02:18:10;1.38;;;1.27;;
60239;SDS011;46102;39.012;-7.064;2022-09-03T02:20:18;2.92;;;1.77;;
60239;SDS011;46102;39.012;-7.064;2022-09-03T02:22:21;2.17;;;1.13;;
60239;SDS011;46102;39.012;-7.064;2022-09-03T02:24:22;1.00;;;1.00;;
60239;SDS011;46102;39.012;-7.064;2022-09-03T02:26:24;1.65;;;1.50;;
60239;SDS011;46102;39.012;-7.064;2022-09-03T02:28:25;1.55;;;1.45;;
60239;SDS011;46102;39.012;-7.064;2022-09-03T02:30:27;1.63;;;1.52;;
60239;SDS011;46102;39.012;-7.064;2022-09-03T02:32:28;2.47;;;1.40;;
60239;SDS011;46102;39.012;-7.064;2022-09-03T02:34:30;2.08;;;1.65;;
60239;SDS011;46102;39.012;-7.064;2022-09-03T02:36:31;4.82;;;1.60;;
60239;SDS011;46102;39.012;-7.064;2022-09-03T02:38:35;4.15;;;1.50;;
60239;SDS011;46102;39.012;-7.064;2022-09-03T02:40:36;1.83;;;1.42;;
60239;SDS011;46102;39.012;-7.064;2022-09-03T02:42:37;2.78;;;1.63;;
60239;SDS011;46102;39.012;-7.064;2022-09-03T02:44:40;2.00;;;1.80;;
60239;SDS011;46102;39.012;-7.064;2022-09-03T02:46:46;5.20;;;2.10;;
60239;SDS011;46102;39.012;-7.064;2022-09-03T02:48:51;2.75;;;1.40;;
60239;SDS011;46102;39.012;-7.064;2022-09-03T02:50:52;2.55;;;1.60;;
60239;SDS011;46102;39.012;-7.064;2022-09-03T02:52:53;3.80;;;1.58;;
60239;SDS011;46102;39.012;-7.064;2022-09-03T02:54:55;4.35;;;1.30;;
60239;SDS011;46102;39.012;-7.064;2022-09-03T02:56:55;4.10;;;1.60;;
60239;SDS011;46102;39.012;-7.064;2022-09-03T02:58:56;4.20;;;1.83;;
60239;SDS011;46102;39.012;-7.064;2022-09-03T03:00:57;9.40;;;1.60;;
60239;SDS011;46102;39.012;-7.064;2022-09-03T03:02:58;3.55;;;1.77;;
60239;SDS011;46102;39.012;-7.064;2022-09-03T03:04:59;3.25;;;1.70;;
60239;SDS011;46102;39.012;-7.064;2022-09-03T03:07:00;1.95;;;1.60;;
60239;SDS011;46102;39.012;-7.064;2022-09-03T03:09:01;5.15;;;1.55;;
60239;SDS011;46102;39.012;-7.064;2022-09-03T03:11:05;7.83;;;1.97;;
60239;SDS011;46102;39.012;-7.064;2022-09-03T03:13:05;2.75;;;1.63;;
60239;SDS011;46102;39.012;-7.064;2022-09-03T03:15:06;3.22;;;2.00;;
60239;SDS011;46102;39.012;-7.064;2022-09-03T03:17:08;2.97;;;1.60;;
60239;SDS011;46102;39.012;-7.064;2022-09-03T03:19:09;1.98;;;1.75;;
60239;SDS011;46102;39.012;-7.064;2022-09-03T03:21:11;3.22;;;1.92;;
60239;SDS011;46102;39.012;-7.064;2022-09-03T03:23:14;1.98;;;1.77;;
60239;SDS011;46102;39.012;-7.064;2022-09-03T03:25:14;4.75;;;2.25;;
60239;SDS011;46102;39.012;-7.064;2022-09-03T03:27:15;3.03;;;2.03;;
60239;SDS011;46102;39.012;-7.064;2022-09-03T03:29:18;2.55;;;2.17;;
60239;SDS011;46102;39.012;-7.064;2022-09-03T03:31:19;2.88;;;2.00;;
60239;SDS011;46102;39.012;-7.064;2022-09-03T03:33:21;3.58;;;1.55;;
60239;SDS011;46102;39.012;-7.064;2022-09-03T03:35:22;3.25;;;2.17;;
60239;SDS011;46102;39.012;-7.064;2022-09-03T03:37:23;2.40;;;2.20;;
60239;SDS011;46102;39.012;-7.064;2022-09-03T03:39:24;6.05;;;2.10;;
60239;SDS011;46102;39.012;-7.064;2022-09-03T03:41:25;9.73;;;4.10;;
60239;SDS011;46102;39.012;-7.064;2022-09-03T03:43:30;2.80;;;1.88;;
60239;SDS011;46102;39.012;-7.064;2022-09-03T03:45:31;3.03;;;2.30;;
60239;SDS011;46102;39.012;-7.064;2022-09-03T03:47:32;5.30;;;2.30;;
60239;SDS011;46102;39.012;-7.064;2022-09-03T03:49:33;6.45;;;3.25;;
60239;SDS011;46102;39.012;-7.064;2022-09-03T03:51:34;10.18;;;3.38;;
60239;SDS011;46102;39.012;-7.064;2022-09-03T03:53:36;6.22;;;3.97;;
60239;SDS011;46102;39.012;-7.064;2022-09-03T03:55:38;9.52;;;4.70;;
60239;SDS011;46102;39.012;-7.064;2022-09-03T03:57:38;5.35;;;4.68;;
60239;SDS011;46102;39.012;-7.064;2022-09-03T03:59:39;10.88;;;5.15;;
60239;SDS011;46102;39.012;-7.064;2022-09-03T04:01:40;9.75;;;7.03;;
60239;SDS011;46102;39.012;-7.064;2022-09-03T04:03:41;10.48;;;5.80;;
60239;SDS011;46102;39.012;-7.064;2022-09-03T04:05:42;6.40;;;4.93;;
60239;SDS011;46102;39.012;-7.064;2022-09-03T04:07:43;8.60;;;5.43;;
60239;SDS011;46102;39.012;-7.064;2022-09-03T04:09:44;7.78;;;4.90;;
60239;SDS011;46102;39.012;-7.064;2022-09-03T04:11:45;6.40;;;4.78;;
60239;SDS011;46102;39.012;-7.064;2022-09-03T04:13:45;8.73;;;3.90;;
60239;SDS011;46102;39.012;-7.064;2022-09-03T04:15:47;6.10;;;4.05;;
60239;SDS011;46102;39.012;-7.064;2022-09-03T04:17:48;9.52;;;4.47;;
60239;SDS011;46102;39.012;-7.064;2022-09-03T04:19:48;6.53;;;4.22;;
60239;SDS011;46102;39.012;-7.064;2022-09-03T04:23:50;5.93;;;3.20;;
60239;SDS011;46102;39.012;-7.064;2022-09-03T04:25:52;4.72;;;3.17;;
60239;SDS011;46102;39.012;-7.064;2022-09-03T04:27:52;7.18;;;3.42;;
60239;SDS011;46102;39.012;-7.064;2022-09-03T04:29:53;7.57;;;3.75;;
60239;SDS011;46102;39.012;-7.064;2022-09-03T04:31:54;5.03;;;3.13;;
60239;SDS011;46102;39.012;-7.064;2022-09-03T04:34:13;4.50;;;3.15;;
60239;SDS011;46102;39.012;-7.064;2022-09-03T04:36:17;4.88;;;3.08;;
60239;SDS011;46102;39.012;-7.064;2022-09-03T04:38:19;6.00;;;2.55;;
60239;SDS011;46102;39.012;-7.064;2022-09-03T04:40:20;3.38;;;2.25;;
60239;SDS011;46102;39.012;-7.064;2022-09-03T04:42:21;4.38;;;2.35;;
60239;SDS011;46102;39.012;-7.064;2022-09-03T04:44:21;3.72;;;2.38;;
60239;SDS011;46102;39.012;-7.064;2022-09-03T04:46:23;5.68;;;2.30;;
60239;SDS011;46102;39.012;-7.064;2022-09-03T04:48:26;3.65;;;2.63;;
60239;SDS011;46102;39.012;-7.064;2022-09-03T04:50:28;7.15;;;3.20;;
60239;SDS011;46102;39.012;-7.064;2022-09-03T04:52:34;7.20;;;3.05;;
60239;SDS011;46102;39.012;-7.064;2022-09-03T04:54:35;5.40;;;2.55;;
60239;SDS011;46102;39.012;-7.064;2022-09-03T04:56:37;3.50;;;2.83;;
60239;SDS011;46102;39.012;-7.064;2022-09-03T04:58:38;3.45;;;2.85;;
60239;SDS011;46102;39.012;-7.064;2022-09-03T05:00:40;6.03;;;3.20;;
60239;SDS011;46102;39.012;-7.064;2022-09-03T05:02:41;6.50;;;3.25;;
60239;SDS011;46102;39.012;-7.064;2022-09-03T05:04:41;7.22;;;4.07;;
60239;SDS011;46102;39.012;-7.064;2022-09-03T05:06:42;4.22;;;3.25;;
60239;SDS011;46102;39.012;-7.064;2022-09-03T05:08:48;10.43;;;4.22;;
60239;SDS011;46102;39.012;-7.064;2022-09-03T05:10:49;9.38;;;4.03;;
60239;SDS011;46102;39.012;-7.064;2022-09-03T05:12:59;6.18;;;3.80;;
60239;SDS011;46102;39.012;-7.064;2022-09-03T05:15:01;8.40;;;4.18;;
60239;SDS011;46102;39.012;-7.064;2022-09-03T05:17:04;4.70;;;3.40;;
60239;SDS011;46102;39.012;-7.064;2022-09-03T05:19:05;4.65;;;3.42;;
60239;SDS011;46102;39.012;-7.064;2022-09-03T05:21:08;4.97;;;3.85;;
60239;SDS011;46102;39.012;-7.064;2022-09-03T05:23:10;7.20;;;3.85;;
60239;SDS011;46102;39.012;-7.064;2022-09-03T05:25:10;9.00;;;4.47;;
60239;SDS011;46102;39.012;-7.064;2022-09-03T05:27:11;12.50;;;4.65;;
60239;SDS011;46102;39.012;-7.064;2022-09-03T05:29:13;4.55;;;3.50;;
60239;SDS011;46102;39.012;-7.064;2022-09-03T05:31:15;5.60;;;3.95;;
60239;SDS011;46102;39.012;-7.064;2022-09-03T05:33:18;9.55;;;4.43;;
60239;SDS011;46102;39.012;-7.064;2022-09-03T05:35:18;7.65;;;4.93;;
60239;SDS011;46102;39.012;-7.064;2022-09-03T05:37:19;8.55;;;4.20;;
60239;SDS011;46102;39.012;-7.064;2022-09-03T05:39:20;9.63;;;5.25;;
60239;SDS011;46102;39.012;-7.064;2022-09-03T05:41:21;7.10;;;4.32;;
60239;SDS011;46102;39.012;-7.064;2022-09-03T05:43:22;13.13;;;4.57;;
60239;SDS011;46102;39.012;-7.064;2022-09-03T05:45:23;11.20;;;4.65;;
60239;SDS011;46102;39.012;-7.064;2022-09-03T05:47:24;5.80;;;4.30;;
60239;SDS011;46102;39.012;-7.064;2022-09-03T05:49:24;10.50;;;4.13;;
60239;SDS011;46102;39.012;-7.064;2022-09-03T05:51:25;14.13;;;4.47;;
60239;SDS011;46102;39.012;-7.064;2022-09-03T05:53:27;11.20;;;6.78;;
60239;SDS011;46102;39.012;-7.064;2022-09-03T05:55:28;8.48;;;3.58;;
60239;SDS011;46102;39.012;-7.064;2022-09-03T05:57:29;10.10;;;3.60;;
60239;SDS011;46102;39.012;-7.064;2022-09-03T05:59:30;11.23;;;4.35;;
60239;SDS011;46102;39.012;-7.064;2022-09-03T06:01:33;7.50;;;3.95;;
60239;SDS011;46102;39.012;-7.064;2022-09-03T06:03:36;9.30;;;4.25;;
60239;SDS011;46102;39.012;-7.064;2022-09-03T06:05:37;10.60;;;4.45;;
60239;SDS011;46102;39.012;-7.064;2022-09-03T06:07:38;8.68;;;4.55;;
60239;SDS011;46102;39.012;-7.064;2022-09-03T06:09:39;10.57;;;4.60;;
60239;SDS011;46102;39.012;-7.064;2022-09-03T06:11:40;4.15;;;3.75;;
60239;SDS011;46102;39.012;-7.064;2022-09-03T06:13:41;6.15;;;4.30;;
60239;SDS011;46102;39.012;-7.064;2022-09-03T06:15:42;11.85;;;4.55;;
60239;SDS011;46102;39.012;-7.064;2022-09-03T06:17:43;13.70;;;4.30;;
60239;SDS011;46102;39.012;-7.064;2022-09-03T06:19:44;9.98;;;3.45;;
60239;SDS011;46102;39.012;-7.064;2022-09-03T06:21:45;5.28;;;2.85;;
60239;SDS011;46102;39.012;-7.064;2022-09-03T06:23:50;8.70;;;3.95;;
60239;SDS011;46102;39.012;-7.064;2022-09-03T06:26:02;10.55;;;3.13;;
60239;SDS011;46102;39.012;-7.064;2022-09-03T06:28:04;6.13;;;3.03;;
60239;SDS011;46102;39.012;-7.064;2022-09-03T06:30:08;6.80;;;3.00;;
60239;SDS011;46102;39.012;-7.064;2022-09-03T06:32:09;4.15;;;3.15;;
60239;SDS011;46102;39.012;-7.064;2022-09-03T06:34:09;7.70;;;3.45;;
60239;SDS011;46102;39.012;-7.064;2022-09-03T06:36:11;10.27;;;2.88;;
60239;SDS011;46102;39.012;-7.064;2022-09-03T06:38:13;10.30;;;4.28;;
60239;SDS011;46102;39.012;-7.064;2022-09-03T06:40:14;7.13;;;2.85;;
60239;SDS011;46102;39.012;-7.064;2022-09-03T06:42:21;11.13;;;2.90;;
60239;SDS011;46102;39.012;-7.064;2022-09-03T06:44:23;8.88;;;2.92;;
60239;SDS011;46102;39.012;-7.064;2022-09-03T06:46:24;11.73;;;3.40;;
60239;SDS011;46102;39.012;-7.064;2022-09-03T06:48:25;12.35;;;3.28;;
60239;SDS011;46102;39.012;-7.064;2022-09-03T06:50:26;6.20;;;3.55;;
60239;SDS011;46102;39.012;-7.064;2022-09-03T06:52:27;10.15;;;3.22;;
60239;SDS011;46102;39.012;-7.064;2022-09-03T06:54:29;8.93;;;3.15;;
60239;SDS011;46102;39.012;-7.064;2022-09-03T06:56:29;12.18;;;3.10;;
60239;SDS011;46102;39.012;-7.064;2022-09-03T06:58:34;4.75;;;2.75;;
60239;SDS011;46102;39.012;-7.064;2022-09-03T07:00:42;8.15;;;3.00;;
60239;SDS011;46102;39.012;-7.064;2022-09-03T07:02:43;9.02;;;3.38;;
60239;SDS011;46102;39.012;-7.064;2022-09-03T07:04:44;11.95;;;3.25;;
60239;SDS011;46102;39.012;-7.064;2022-09-03T07:06:45;6.63;;;3.40;;
60239;SDS011;46102;39.012;-7.064;2022-09-03T07:08:47;6.65;;;3.22;;
60239;SDS011;46102;39.012;-7.064;2022-09-03T07:10:47;8.13;;;3.33;;
60239;SDS011;46102;39.012;-7.064;2022-09-03T07:12:50;9.23;;;3.45;;
60239;SDS011;46102;39.012;-7.064;2022-09-03T07:14:55;10.70;;;3.75;;
60239;SDS011;46102;39.012;-7.064;2022-09-03T07:16:55;6.43;;;3.05;;
60239;SDS011;46102;39.012;-7.064;2022-09-03T07:18:56;7.60;;;2.97;;
60239;SDS011;46102;39.012;-7.064;2022-09-03T07:20:58;9.40;;;3.05;;
60239;SDS011;46102;39.012;-7.064;2022-09-03T07:23:00;7.53;;;4.50;;
60239;SDS011;46102;39.012;-7.064;2022-09-03T07:25:01;5.53;;;2.60;;
60239;SDS011;46102;39.012;-7.064;2022-09-03T07:27:02;10.80;;;2.25;;
60239;SDS011;46102;39.012;-7.064;2022-09-03T07:29:05;5.95;;;2.25;;
60239;SDS011;46102;39.012;-7.064;2022-09-03T07:31:11;6.35;;;2.28;;
60239;SDS011;46102;39.012;-7.064;2022-09-03T07:33:14;5.72;;;3.28;;
60239;SDS011;46102;39.012;-7.064;2022-09-03T07:35:15;9.02;;;2.30;;
60239;SDS011;46102;39.012;-7.064;2022-09-03T07:37:15;5.97;;;2.30;;
60239;SDS011;46102;39.012;-7.064;2022-09-03T07:39:17;6.30;;;2.05;;
60239;SDS011;46102;39.012;-7.064;2022-09-03T07:41:18;8.82;;;3.22;;
60239;SDS011;46102;39.012;-7.064;2022-09-03T07:43:19;11.43;;;2.33;;
60239;SDS011;46102;39.012;-7.064;2022-09-03T07:45:21;9.05;;;2.30;;
60239;SDS011;46102;39.012;-7.064;2022-09-03T07:47:23;8.10;;;2.72;;
60239;SDS011;46102;39.012;-7.064;2022-09-03T07:49:25;10.60;;;2.85;;
60239;SDS011;46102;39.012;-7.064;2022-09-03T07:51:27;8.15;;;2.35;;
60239;SDS011;46102;39.012;-7.064;2022-09-03T07:53:30;6.88;;;2.22;;
60239;SDS011;46102;39.012;-7.064;2022-09-03T07:55:30;6.70;;;2.42;;
60239;SDS011;46102;39.012;-7.064;2022-09-03T07:57:31;5.95;;;2.10;;
60239;SDS011;46102;39.012;-7.064;2022-09-03T07:59:32;5.60;;;2.15;;
60239;SDS011;46102;39.012;-7.064;2022-09-03T08:01:33;11.90;;;3.05;;
60239;SDS011;46102;39.012;-7.064;2022-09-03T08:03:35;5.65;;;2.80;;
60239;SDS011;46102;39.012;-7.064;2022-09-03T08:05:36;9.95;;;2.60;;
60239;SDS011;46102;39.012;-7.064;2022-09-03T08:07:37;5.88;;;2.40;;
60239;SDS011;46102;39.012;-7.064;2022-09-03T08:09:37;11.63;;;2.80;;
60239;SDS011;46102;39.012;-7.064;2022-09-03T08:11:39;6.95;;;2.30;;
60239;SDS011;46102;39.012;-7.064;2022-09-03T08:13:46;8.95;;;2.58;;
60239;SDS011;46102;39.012;-7.064;2022-09-03T08:15:54;10.27;;;2.80;;
60239;SDS011;46102;39.012;-7.064;2022-09-03T08:17:56;7.90;;;3.05;;
60239;SDS011;46102;39.012;-7.064;2022-09-03T08:19:59;9.35;;;4.00;;
60239;SDS011;46102;39.012;-7.064;2022-09-03T08:22:00;14.07;;;3.40;;
60239;SDS011;46102;39.012;-7.064;2022-09-03T08:24:00;3.17;;;2.00;;
60239;SDS011;46102;39.012;-7.064;2022-09-03T08:26:02;5.50;;;2.30;;
60239;SDS011;46102;39.012;-7.064;2022-09-03T08:28:02;10.93;;;2.75;;
60239;SDS011;46102;39.012;-7.064;2022-09-03T08:30:03;10.85;;;2.90;;
60239;SDS011;46102;39.012;-7.064;2022-09-03T08:32:10;6.47;;;3.08;;
60239;SDS011;46102;39.012;-7.064;2022-09-03T08:34:11;8.13;;;3.17;;
60239;SDS011;46102;39.012;-7.064;2022-09-03T08:36:15;9.57;;;3.22;;
60239;SDS011;46102;39.012;-7.064;2022-09-03T08:38:21;5.40;;;2.92;;
60239;SDS011;46102;39.012;-7.064;2022-09-03T08:40:24;9.27;;;2.97;;
60239;SDS011;46102;39.012;-7.064;2022-09-03T08:42:32;11.30;;;3.88;;
60239;SDS011;46102;39.012;-7.064;2022-09-03T08:44:45;4.75;;;3.10;;
60239;SDS011;46102;39.012;-7.064;2022-09-03T08:47:13;9.00;;;3.30;;
60239;SDS011;46102;39.012;-7.064;2022-09-03T08:49:22;7.25;;;3.45;;
60239;SDS011;46102;39.012;-7.064;2022-09-03T08:51:31;5.50;;;3.50;;
60239;SDS011;46102;39.012;-7.064;2022-09-03T08:53:42;5.85;;;3.45;;
60239;SDS011;46102;39.012;-7.064;2022-09-03T08:55:49;7.93;;;2.60;;
60239;SDS011;46102;39.012;-7.064;2022-09-03T08:57:55;5.68;;;2.40;;
60239;SDS011;46102;39.012;-7.064;2022-09-03T09:00:02;5.28;;;2.50;;
60239;SDS011;46102;39.012;-7.064;2022-09-03T09:04:34;7.13;;;2.45;;
60239;SDS011;46102;39.012;-7.064;2022-09-03T09:08:47;6.93;;;3.20;;
60239;SDS011;46102;39.012;-7.064;2022-09-03T09:11:03;3.10;;;2.20;;
60239;SDS011;46102;39.012;-7.064;2022-09-03T09:22:28;6.80;;;2.63;;
60239;SDS011;46102;39.012;-7.064;2022-09-03T09:24:38;8.13;;;2.20;;
60239;SDS011;46102;39.012;-7.064;2022-09-03T09:26:43;3.88;;;1.95;;
60239;SDS011;46102;39.012;-7.064;2022-09-03T09:28:45;6.55;;;2.15;;
60239;SDS011;46102;39.012;-7.064;2022-09-03T09:30:47;3.28;;;1.58;;
60239;SDS011;46102;39.012;-7.064;2022-09-03T09:32:49;5.40;;;1.92;;
60239;SDS011;46102;39.012;-7.064;2022-09-03T09:34:50;4.95;;;1.75;;
60239;SDS011;46102;39.012;-7.064;2022-09-03T09:36:53;4.85;;;2.20;;
60239;SDS011;46102;39.012;-7.064;2022-09-03T09:38:55;5.60;;;1.65;;
60239;SDS011;46102;39.012;-7.064;2022-09-03T09:41:07;5.93;;;1.83;;
60239;SDS011;46102;39.012;-7.064;2022-09-03T09:43:15;5.72;;;2.47;;
60239;SDS011;46102;39.012;-7.064;2022-09-03T09:45:19;10.23;;;2.53;;
60239;SDS011;46102;39.012;-7.064;2022-09-03T09:47:24;4.53;;;2.10;;
60239;SDS011;46102;39.012;-7.064;2022-09-03T09:49:29;5.93;;;1.73;;
60239;SDS011;46102;39.012;-7.064;2022-09-03T09:51:32;5.35;;;1.45;;
60239;SDS011;46102;39.012;-7.064;2022-09-03T09:53:33;2.40;;;1.63;;
60239;SDS011;46102;39.012;-7.064;2022-09-03T09:55:34;3.13;;;1.83;;
60239;SDS011;46102;39.012;-7.064;2022-09-03T09:57:38;4.53;;;1.73;;
60239;SDS011;46102;39.012;-7.064;2022-09-03T09:59:39;4.68;;;1.77;;
60239;SDS011;46102;39.012;-7.064;2022-09-03T10:01:41;2.58;;;1.50;;
60239;SDS011;46102;39.012;-7.064;2022-09-03T10:03:56;5.85;;;1.42;;
60239;SDS011;46102;39.012;-7.064;2022-09-03T10:06:04;3.58;;;2.08;;
60239;SDS011;46102;39.012;-7.064;2022-09-03T10:08:25;4.72;;;1.42;;
60239;SDS011;46102;39.012;-7.064;2022-09-03T10:10:26;6.35;;;1.70;;
60239;SDS011;46102;39.012;-7.064;2022-09-03T10:12:39;4.57;;;1.48;;
60239;SDS011;46102;39.012;-7.064;2022-09-03T10:16:46;8.90;;;2.20;;
60239;SDS011;46102;39.012;-7.064;2022-09-03T10:23:09;5.07;;;1.77;;
60239;SDS011;46102;39.012;-7.064;2022-09-03T10:25:18;6.53;;;1.80;;
60239;SDS011;46102;39.012;-7.064;2022-09-03T10:27:20;2.78;;;1.25;;
60239;SDS011;46102;39.012;-7.064;2022-09-03T10:29:23;3.38;;;1.40;;
60239;SDS011;46102;39.012;-7.064;2022-09-03T10:31:32;4.07;;;1.23;;
60239;SDS011;46102;39.012;-7.064;2022-09-03T10:33:50;4.90;;;1.17;;
60239;SDS011;46102;39.012;-7.064;2022-09-03T10:35:59;10.88;;;2.05;;
60239;SDS011;46102;39.012;-7.064;2022-09-03T10:40:37;4.20;;;1.20;;
60239;SDS011;46102;39.012;-7.064;2022-09-03T10:42:41;4.63;;;1.30;;
60239;SDS011;46102;39.012;-7.064;2022-09-03T10:44:58;6.80;;;1.77;;
60239;SDS011;46102;39.012;-7.064;2022-09-03T10:49:37;3.42;;;1.33;;
60239;SDS011;46102;39.012;-7.064;2022-09-03T10:51:51;4.65;;;1.45;;
60239;SDS011;46102;39.012;-7.064;2022-09-03T10:56:53;2.75;;;1.30;;
60239;SDS011;46102;39.012;-7.064;2022-09-03T11:03:59;3.78;;;1.80;;
60239;SDS011;46102;39.012;-7.064;2022-09-03T11:08:24;4.70;;;2.78;;
60239;SDS011;46102;39.012;-7.064;2022-09-03T11:10:31;5.45;;;2.55;;
60239;SDS011;46102;39.012;-7.064;2022-09-03T11:12:34;4.65;;;1.73;;
60239;SDS011;46102;39.012;-7.064;2022-09-03T11:14:42;5.55;;;1.60;;
60239;SDS011;46102;39.012;-7.064;2022-09-03T11:16:51;2.10;;;1.58;;
60239;SDS011;46102;39.012;-7.064;2022-09-03T11:18:56;2.72;;;1.60;;
60239;SDS011;46102;39.012;-7.064;2022-09-03T11:21:03;3.70;;;1.30;;
60239;SDS011;46102;39.012;-7.064;2022-09-03T11:23:06;2.35;;;1.55;;
60239;SDS011;46102;39.012;-7.064;2022-09-03T11:25:09;3.97;;;1.73;;
60239;SDS011;46102;39.012;-7.064;2022-09-03T11:29:33;3.90;;;1.50;;
60239;SDS011;46102;39.012;-7.064;2022-09-03T11:33:53;8.68;;;1.83;;
60239;SDS011;46102;39.012;-7.064;2022-09-03T11:35:59;3.42;;;2.03;;
60239;SDS011;46102;39.012;-7.064;2022-09-03T11:38:02;5.78;;;1.70;;
60239;SDS011;46102;39.012;-7.064;2022-09-03T11:42:11;2.28;;;1.40;;
60239;SDS011;46102;39.012;-7.064;2022-09-03T11:44:35;2.42;;;1.52;;
60239;SDS011;46102;39.012;-7.064;2022-09-03T11:46:39;2.75;;;1.20;;
60239;SDS011;46102;39.012;-7.064;2022-09-03T11:50:51;5.17;;;1.27;;
60239;SDS011;46102;39.012;-7.064;2022-09-03T11:53:08;1.48;;;1.00;;
60239;SDS011;46102;39.012;-7.064;2022-09-03T11:55:10;1.77;;;1.10;;
60239;SDS011;46102;39.012;-7.064;2022-09-03T11:57:13;4.85;;;1.73;;
60239;SDS011;46102;39.012;-7.064;2022-09-03T11:59:17;2.85;;;1.10;;
60239;SDS011;46102;39.012;-7.064;2022-09-03T12:01:22;3.95;;;1.00;;
60239;SDS011;46102;39.012;-7.064;2022-09-03T12:03:43;6.18;;;2.00;;
60239;SDS011;46102;39.012;-7.064;2022-09-03T12:05:50;3.53;;;1.85;;
60239;SDS011;46102;39.012;-7.064;2022-09-03T12:10:26;7.95;;;1.63;;
60239;SDS011;46102;39.012;-7.064;2022-09-03T12:12:54;7.10;;;2.70;;
60239;SDS011;46102;39.012;-7.064;2022-09-03T12:15:15;2.80;;;1.80;;
60239;SDS011;46102;39.012;-7.064;2022-09-03T12:20:13;2.58;;;1.17;;
60239;SDS011;46102;39.012;-7.064;2022-09-03T12:22:15;2.97;;;1.45;;
60239;SDS011;46102;39.012;-7.064;2022-09-03T12:24:17;4.40;;;1.58;;
60239;SDS011;46102;39.012;-7.064;2022-09-03T12:26:20;4.07;;;1.60;;
60239;SDS011;46102;39.012;-7.064;2022-09-03T12:28:23;3.92;;;1.33;;
60239;SDS011;46102;39.012;-7.064;2022-09-03T12:30:27;4.47;;;1.50;;
60239;SDS011;46102;39.012;-7.064;2022-09-03T12:32:31;3.15;;;1.13;;
60239;SDS011;46102;39.012;-7.064;2022-09-03T12:34:37;3.60;;;1.40;;
60239;SDS011;46102;39.012;-7.064;2022-09-03T12:38:42;2.13;;;1.40;;
60239;SDS011;46102;39.012;-7.064;2022-09-03T12:40:43;2.20;;;1.42;;
60239;SDS011;46102;39.012;-7.064;2022-09-03T12:42:44;4.38;;;1.65;;
60239;SDS011;46102;39.012;-7.064;2022-09-03T12:44:45;2.47;;;1.23;;
60239;SDS011;46102;39.012;-7.064;2022-09-03T12:46:45;3.60;;;1.45;;
60239;SDS011;46102;39.012;-7.064;2022-09-03T12:48:57;2.05;;;1.30;;
60239;SDS011;46102;39.012;-7.064;2022-09-03T12:51:05;4.82;;;1.50;;
60239;SDS011;46102;39.012;-7.064;2022-09-03T12:53:05;1.67;;;1.58;;
60239;SDS011;46102;39.012;-7.064;2022-09-03T12:57:37;2.75;;;1.05;;
60239;SDS011;46102;39.012;-7.064;2022-09-03T12:59:50;5.05;;;1.40;;
60239;SDS011;46102;39.012;-7.064;2022-09-03T13:01:57;2.38;;;1.30;;
60239;SDS011;46102;39.012;-7.064;2022-09-03T13:04:13;5.18;;;1.35;;
60239;SDS011;46102;39.012;-7.064;2022-09-03T13:06:21;3.10;;;1.42;;
60239;SDS011;46102;39.012;-7.064;2022-09-03T13:08:26;3.03;;;1.20;;
60239;SDS011;46102;39.012;-7.064;2022-09-03T13:10:34;1.92;;;1.30;;
60239;SDS011;46102;39.012;-7.064;2022-09-03T13:12:44;4.72;;;1.45;;
60239;SDS011;46102;39.012;-7.064;2022-09-03T13:14:49;1.90;;;1.30;;
60239;SDS011;46102;39.012;-7.064;2022-09-03T13:16:54;6.35;;;1.15;;
60239;SDS011;46102;39.012;-7.064;2022-09-03T13:23:49;2.80;;;1.38;;
60239;SDS011;46102;39.012;-7.064;2022-09-03T13:33:00;1.60;;;1.42;;
60239;SDS011;46102;39.012;-7.064;2022-09-03T13:35:09;4.45;;;1.75;;
60239;SDS011;46102;39.012;-7.064;2022-09-03T13:39:32;2.00;;;1.30;;
60239;SDS011;46102;39.012;-7.064;2022-09-03T13:44:00;2.07;;;1.30;;
60239;SDS011;46102;39.012;-7.064;2022-09-03T13:46:10;2.90;;;1.38;;
60239;SDS011;46102;39.012;-7.064;2022-09-03T13:50:58;2.25;;;1.23;;
60239;SDS011;46102;39.012;-7.064;2022-09-03T13:55:40;3.58;;;1.20;;
60239;SDS011;46102;39.012;-7.064;2022-09-03T13:57:53;1.20;;;1.08;;
60239;SDS011;46102;39.012;-7.064;2022-09-03T14:04:20;2.67;;;1.10;;
60239;SDS011;46102;39.012;-7.064;2022-09-03T14:13:54;5.65;;;1.20;;
60239;SDS011;46102;39.012;-7.064;2022-09-03T14:16:25;1.15;;;1.05;;
60239;SDS011;46102;39.012;-7.064;2022-09-03T14:18:43;1.10;;;0.90;;
60239;SDS011;46102;39.012;-7.064;2022-09-03T14:20:55;2.03;;;0.93;;
60239;SDS011;46102;39.012;-7.064;2022-09-03T14:25:21;1.17;;;0.80;;
60239;SDS011;46102;39.012;-7.064;2022-09-03T14:27:24;1.20;;;0.90;;
60239;SDS011;46102;39.012;-7.064;2022-09-03T14:29:31;3.35;;;1.13;;
60239;SDS011;46102;39.012;-7.064;2022-09-03T14:34:16;1.55;;;1.05;;
60239;SDS011;46102;39.012;-7.064;2022-09-03T14:36:34;1.30;;;0.73;;
60239;SDS011;46102;39.012;-7.064;2022-09-03T14:45:46;4.97;;;1.23;;
60239;SDS011;46102;39.012;-7.064;2022-09-03T14:48:00;1.10;;;1.00;;
60239;SDS011;46102;39.012;-7.064;2022-09-03T14:50:18;1.67;;;1.23;;
60239;SDS011;46102;39.012;-7.064;2022-09-03T14:59:17;1.33;;;1.13;;